sensor_id;sensor_type;location;lat;lon;timestamp;temperature;humidity
75363;DHT22;64122;51.988;5.892;2023-05-10T00:01:28;15.82;73.41
75363;DHT22;64122;51.988;5.892;2023-05-10T00:03:57;15.83;73.48
75363;DHT22;64122;51.988;5.892;2023-05-10T00:06:26;15.86;73.70
75363;DHT22;64122;51.988;5.892;2023-05-10T00:08:56;15.88;73.38
75363;DHT22;64122;51.988;5.892;2023-05-10T00:11:28;15.89;73.62
75363;DHT22;64122;51.988;5.892;2023-05-10T00:13:57;15.91;73.46
75363;DHT22;64122;51.988;5.892;2023-05-10T00:16:26;15.90;73.58
75363;DHT22;64122;51.988;5.892;2023-05-10T00:18:55;15.95;73.70
75363;DHT22;64122;51.988;5.892;2023-05-10T00:21:24;15.97;73.46
75363;DHT22;64122;51.988;5.892;2023-05-10T00:23:54;15.98;73.29
75363;DHT22;64122;51.988;5.892;2023-05-10T00:26:23;15.98;73.37
75363;DHT22;64122;51.988;5.892;2023-05-10T00:28:57;15.98;73.33
75363;DHT22;64122;51.988;5.892;2023-05-10T00:31:27;16.01;73.36
75363;DHT22;64122;51.988;5.892;2023-05-10T00:33:57;16.05;73.38
75363;DHT22;64122;51.988;5.892;2023-05-10T00:36:26;16.07;73.41
75363;DHT22;64122;51.988;5.892;2023-05-10T00:38:57;16.07;73.22
75363;DHT22;64122;51.988;5.892;2023-05-10T00:41:26;16.06;73.44
75363;DHT22;64122;51.988;5.892;2023-05-10T00:44:01;16.05;73.37
75363;DHT22;64122;51.988;5.892;2023-05-10T00:46:30;16.06;73.41
75363;DHT22;64122;51.988;5.892;2023-05-10T00:49:00;16.06;73.54
75363;DHT22;64122;51.988;5.892;2023-05-10T00:51:30;16.06;73.43
75363;DHT22;64122;51.988;5.892;2023-05-10T00:53:59;16.06;73.37
75363;DHT22;64122;51.988;5.892;2023-05-10T00:56:29;16.05;73.31
75363;DHT22;64122;51.988;5.892;2023-05-10T00:59:00;16.00;73.45
75363;DHT22;64122;51.988;5.892;2023-05-10T01:01:30;16.00;73.58
75363;DHT22;64122;51.988;5.892;2023-05-10T01:03:59;15.99;73.62
75363;DHT22;64122;51.988;5.892;2023-05-10T01:06:29;16.01;73.55
75363;DHT22;64122;51.988;5.892;2023-05-10T01:08:58;16.03;73.69
75363;DHT22;64122;51.988;5.892;2023-05-10T01:11:28;16.02;73.48
75363;DHT22;64122;51.988;5.892;2023-05-10T01:13:57;16.02;73.71
75363;DHT22;64122;51.988;5.892;2023-05-10T01:16:33;16.02;73.67
75363;DHT22;64122;51.988;5.892;2023-05-10T01:19:09;16.04;73.42
75363;DHT22;64122;51.988;5.892;2023-05-10T01:21:45;16.03;73.37
75363;DHT22;64122;51.988;5.892;2023-05-10T01:33:30;15.95;73.69
75363;DHT22;64122;51.988;5.892;2023-05-10T01:36:08;15.89;73.83
75363;DHT22;64122;51.988;5.892;2023-05-10T01:38:42;15.88;73.95
75363;DHT22;64122;51.988;5.892;2023-05-10T01:41:19;15.90;74.00
75363;DHT22;64122;51.988;5.892;2023-05-10T01:43:59;15.89;73.93
75363;DHT22;64122;51.988;5.892;2023-05-10T01:46:35;15.87;74.23
75363;DHT22;64122;51.988;5.892;2023-05-10T01:49:09;15.88;74.01
75363;DHT22;64122;51.988;5.892;2023-05-10T01:51:44;15.86;74.12
75363;DHT22;64122;51.988;5.892;2023-05-10T01:54:15;15.86;74.17
75363;DHT22;64122;51.988;5.892;2023-05-10T01:56:48;15.81;74.29
75363;DHT22;64122;51.988;5.892;2023-05-10T01:59:19;15.76;74.45
75363;DHT22;64122;51.988;5.892;2023-05-10T02:01:49;15.80;74.47
75363;DHT22;64122;51.988;5.892;2023-05-10T02:04:23;15.78;74.46
75363;DHT22;64122;51.988;5.892;2023-05-10T02:06:54;15.82;74.48
75363;DHT22;64122;51.988;5.892;2023-05-10T02:09:25;15.82;74.58
75363;DHT22;64122;51.988;5.892;2023-05-10T02:11:58;15.84;74.44
75363;DHT22;64122;51.988;5.892;2023-05-10T02:14:29;15.86;74.39
75363;DHT22;64122;51.988;5.892;2023-05-10T02:17:00;15.84;74.41
75363;DHT22;64122;51.988;5.892;2023-05-10T02:19:34;15.83;74.42
75363;DHT22;64122;51.988;5.892;2023-05-10T02:22:05;15.85;74.37
75363;DHT22;64122;51.988;5.892;2023-05-10T02:24:36;15.81;74.38
75363;DHT22;64122;51.988;5.892;2023-05-10T02:27:06;15.81;74.50
75363;DHT22;64122;51.988;5.892;2023-05-10T02:29:37;15.78;74.47
75363;DHT22;64122;51.988;5.892;2023-05-10T02:32:07;15.78;74.43
75363;DHT22;64122;51.988;5.892;2023-05-10T02:34:40;15.77;74.42
75363;DHT22;64122;51.988;5.892;2023-05-10T02:37:11;15.81;74.57
75363;DHT22;64122;51.988;5.892;2023-05-10T02:39:41;15.84;74.60
75363;DHT22;64122;51.988;5.892;2023-05-10T02:42:14;15.84;74.33
75363;DHT22;64122;51.988;5.892;2023-05-10T02:44:46;15.76;74.41
75363;DHT22;64122;51.988;5.892;2023-05-10T02:47:17;15.76;74.54
75363;DHT22;64122;51.988;5.892;2023-05-10T02:49:50;15.78;74.48
75363;DHT22;64122;51.988;5.892;2023-05-10T02:52:23;15.77;74.37
75363;DHT22;64122;51.988;5.892;2023-05-10T02:54:55;15.76;74.41
75363;DHT22;64122;51.988;5.892;2023-05-10T02:57:28;15.75;74.35
75363;DHT22;64122;51.988;5.892;2023-05-10T02:59:59;15.74;74.33
75363;DHT22;64122;51.988;5.892;2023-05-10T03:02:29;15.76;74.34
75363;DHT22;64122;51.988;5.892;2023-05-10T03:05:02;15.73;74.20
75363;DHT22;64122;51.988;5.892;2023-05-10T03:07:32;15.73;74.23
75363;DHT22;64122;51.988;5.892;2023-05-10T03:10:02;15.70;74.27
75363;DHT22;64122;51.988;5.892;2023-05-10T03:12:45;15.66;74.36
75363;DHT22;64122;51.988;5.892;2023-05-10T03:15:19;15.65;74.22
75363;DHT22;64122;51.988;5.892;2023-05-10T03:17:55;15.61;74.44
75363;DHT22;64122;51.988;5.892;2023-05-10T03:20:33;15.60;74.41
75363;DHT22;64122;51.988;5.892;2023-05-10T03:23:07;15.57;74.47
75363;DHT22;64122;51.988;5.892;2023-05-10T03:25:37;15.58;74.54
75363;DHT22;64122;51.988;5.892;2023-05-10T03:28:12;15.57;74.47
75363;DHT22;64122;51.988;5.892;2023-05-10T03:30:43;15.54;74.41
75363;DHT22;64122;51.988;5.892;2023-05-10T03:33:14;15.54;74.38
75363;DHT22;64122;51.988;5.892;2023-05-10T03:35:48;15.55;74.28
75363;DHT22;64122;51.988;5.892;2023-05-10T03:38:17;15.53;74.22
75363;DHT22;64122;51.988;5.892;2023-05-10T03:40:46;15.52;74.23
75363;DHT22;64122;51.988;5.892;2023-05-10T03:43:16;15.54;74.10
75363;DHT22;64122;51.988;5.892;2023-05-10T03:45:45;15.52;74.22
75363;DHT22;64122;51.988;5.892;2023-05-10T03:48:14;15.55;73.93
75363;DHT22;64122;51.988;5.892;2023-05-10T03:50:43;15.49;73.69
75363;DHT22;64122;51.988;5.892;2023-05-10T03:53:16;15.43;73.84
75363;DHT22;64122;51.988;5.892;2023-05-10T03:55:45;15.44;73.82
75363;DHT22;64122;51.988;5.892;2023-05-10T03:58:14;15.47;73.73
75363;DHT22;64122;51.988;5.892;2023-05-10T04:00:44;15.47;73.74
75363;DHT22;64122;51.988;5.892;2023-05-10T04:03:14;15.48;73.55
75363;DHT22;64122;51.988;5.892;2023-05-10T04:05:43;15.47;73.68
75363;DHT22;64122;51.988;5.892;2023-05-10T04:08:13;15.53;73.39
75363;DHT22;64122;51.988;5.892;2023-05-10T04:10:45;15.53;73.38
75363;DHT22;64122;51.988;5.892;2023-05-10T04:13:14;15.53;73.34
75363;DHT22;64122;51.988;5.892;2023-05-10T04:15:43;15.51;73.20
75363;DHT22;64122;51.988;5.892;2023-05-10T04:18:12;15.49;73.26
75363;DHT22;64122;51.988;5.892;2023-05-10T04:20:43;15.46;73.12
75363;DHT22;64122;51.988;5.892;2023-05-10T04:23:12;15.47;73.25
75363;DHT22;64122;51.988;5.892;2023-05-10T04:25:45;15.47;73.14
75363;DHT22;64122;51.988;5.892;2023-05-10T04:28:14;15.49;73.13
75363;DHT22;64122;51.988;5.892;2023-05-10T04:30:43;15.49;73.21
75363;DHT22;64122;51.988;5.892;2023-05-10T04:33:13;15.45;73.26
75363;DHT22;64122;51.988;5.892;2023-05-10T04:35:42;15.42;73.15
75363;DHT22;64122;51.988;5.892;2023-05-10T04:38:11;15.41;73.15
75363;DHT22;64122;51.988;5.892;2023-05-10T04:40:40;15.39;73.35
75363;DHT22;64122;51.988;5.892;2023-05-10T04:43:12;15.40;73.28
75363;DHT22;64122;51.988;5.892;2023-05-10T04:45:41;15.39;73.41
75363;DHT22;64122;51.988;5.892;2023-05-10T04:48:11;15.40;73.19
75363;DHT22;64122;51.988;5.892;2023-05-10T04:50:42;15.43;73.54
75363;DHT22;64122;51.988;5.892;2023-05-10T04:53:11;15.44;73.36
75363;DHT22;64122;51.988;5.892;2023-05-10T04:55:40;15.45;73.32
75363;DHT22;64122;51.988;5.892;2023-05-10T04:58:12;15.48;73.26
75363;DHT22;64122;51.988;5.892;2023-05-10T05:00:41;15.46;73.10
75363;DHT22;64122;51.988;5.892;2023-05-10T05:03:11;15.45;73.08
75363;DHT22;64122;51.988;5.892;2023-05-10T05:05:40;15.45;73.09
75363;DHT22;64122;51.988;5.892;2023-05-10T05:08:09;15.45;73.35
75363;DHT22;64122;51.988;5.892;2023-05-10T05:10:38;15.48;73.22
75363;DHT22;64122;51.988;5.892;2023-05-10T05:13:08;15.49;73.36
75363;DHT22;64122;51.988;5.892;2023-05-10T05:15:40;15.52;73.41
75363;DHT22;64122;51.988;5.892;2023-05-10T05:18:09;15.58;73.26
75363;DHT22;64122;51.988;5.892;2023-05-10T05:20:38;15.62;73.04
75363;DHT22;64122;51.988;5.892;2023-05-10T05:23:07;15.68;72.90
75363;DHT22;64122;51.988;5.892;2023-05-10T05:25:36;15.71;72.70
75363;DHT22;64122;51.988;5.892;2023-05-10T05:28:05;15.76;72.78
75363;DHT22;64122;51.988;5.892;2023-05-10T05:30:35;15.78;72.85
75363;DHT22;64122;51.988;5.892;2023-05-10T05:33:06;15.77;72.47
75363;DHT22;64122;51.988;5.892;2023-05-10T05:35:36;15.81;72.67
75363;DHT22;64122;51.988;5.892;2023-05-10T05:38:05;15.92;72.53
75363;DHT22;64122;51.988;5.892;2023-05-10T05:40:34;16.03;72.51
75363;DHT22;64122;51.988;5.892;2023-05-10T05:43:03;16.07;72.25
75363;DHT22;64122;51.988;5.892;2023-05-10T05:45:32;16.05;71.93
75363;DHT22;64122;51.988;5.892;2023-05-10T05:48:02;16.06;71.90
75363;DHT22;64122;51.988;5.892;2023-05-10T05:50:34;16.13;71.56
75363;DHT22;64122;51.988;5.892;2023-05-10T05:53:03;16.17;71.90
75363;DHT22;64122;51.988;5.892;2023-05-10T05:55:32;16.26;71.74
75363;DHT22;64122;51.988;5.892;2023-05-10T05:58:02;16.36;71.74
75363;DHT22;64122;51.988;5.892;2023-05-10T06:00:31;16.39;71.20
75363;DHT22;64122;51.988;5.892;2023-05-10T06:03:00;16.32;71.10
75363;DHT22;64122;51.988;5.892;2023-05-10T06:05:29;16.26;71.33
75363;DHT22;64122;51.988;5.892;2023-05-10T06:08:02;16.26;71.39
75363;DHT22;64122;51.988;5.892;2023-05-10T06:10:31;16.26;71.48
75363;DHT22;64122;51.988;5.892;2023-05-10T06:13:01;16.30;71.36
75363;DHT22;64122;51.988;5.892;2023-05-10T06:15:31;16.36;71.37
75363;DHT22;64122;51.988;5.892;2023-05-10T06:18:00;16.37;71.05
75363;DHT22;64122;51.988;5.892;2023-05-10T06:20:30;16.30;71.06
75363;DHT22;64122;51.988;5.892;2023-05-10T06:23:02;16.24;71.29
75363;DHT22;64122;51.988;5.892;2023-05-10T06:25:31;16.21;71.37
75363;DHT22;64122;51.988;5.892;2023-05-10T06:28:00;16.17;71.51
75363;DHT22;64122;51.988;5.892;2023-05-10T06:30:29;16.14;71.58
75363;DHT22;64122;51.988;5.892;2023-05-10T06:32:59;16.06;71.96
75363;DHT22;64122;51.988;5.892;2023-05-10T06:35:28;16.03;72.10
75363;DHT22;64122;51.988;5.892;2023-05-10T06:37:58;16.01;71.96
75363;DHT22;64122;51.988;5.892;2023-05-10T06:40:30;15.96;71.87
75363;DHT22;64122;51.988;5.892;2023-05-10T06:42:59;15.92;72.22
75363;DHT22;64122;51.988;5.892;2023-05-10T06:45:29;16.00;72.16
75363;DHT22;64122;51.988;5.892;2023-05-10T06:47:58;16.02;72.06
75363;DHT22;64122;51.988;5.892;2023-05-10T06:50:27;16.05;71.84
75363;DHT22;64122;51.988;5.892;2023-05-10T06:52:56;16.10;71.90
75363;DHT22;64122;51.988;5.892;2023-05-10T06:55:26;16.11;71.68
75363;DHT22;64122;51.988;5.892;2023-05-10T06:57:57;16.12;71.57
75363;DHT22;64122;51.988;5.892;2023-05-10T07:00:27;16.17;71.79
75363;DHT22;64122;51.988;5.892;2023-05-10T07:02:56;16.22;71.56
75363;DHT22;64122;51.988;5.892;2023-05-10T07:05:25;16.20;71.38
75363;DHT22;64122;51.988;5.892;2023-05-10T07:07:55;16.24;71.41
75363;DHT22;64122;51.988;5.892;2023-05-10T07:10:24;16.20;71.26
75363;DHT22;64122;51.988;5.892;2023-05-10T07:12:54;16.28;71.30
75363;DHT22;64122;51.988;5.892;2023-05-10T07:15:25;16.34;71.26
75363;DHT22;64122;51.988;5.892;2023-05-10T07:17:55;16.49;70.94
75363;DHT22;64122;51.988;5.892;2023-05-10T07:20:24;16.60;70.42
75363;DHT22;64122;51.988;5.892;2023-05-10T07:22:53;16.64;70.59
75363;DHT22;64122;51.988;5.892;2023-05-10T07:25:23;16.70;70.60
75363;DHT22;64122;51.988;5.892;2023-05-10T07:27:52;16.73;70.20
75363;DHT22;64122;51.988;5.892;2023-05-10T07:30:21;16.73;70.36
75363;DHT22;64122;51.988;5.892;2023-05-10T07:32:53;16.79;70.38
75363;DHT22;64122;51.988;5.892;2023-05-10T07:35:22;16.91;69.88
75363;DHT22;64122;51.988;5.892;2023-05-10T07:37:51;17.03;69.44
75363;DHT22;64122;51.988;5.892;2023-05-10T07:40:21;17.13;69.03
75363;DHT22;64122;51.988;5.892;2023-05-10T07:42:50;17.11;69.24
75363;DHT22;64122;51.988;5.892;2023-05-10T07:45:19;17.14;69.13
75363;DHT22;64122;51.988;5.892;2023-05-10T07:47:49;17.17;69.36
75363;DHT22;64122;51.988;5.892;2023-05-10T07:50:21;17.24;69.60
75363;DHT22;64122;51.988;5.892;2023-05-10T07:52:50;17.24;69.43
75363;DHT22;64122;51.988;5.892;2023-05-10T07:55:19;17.22;69.16
75363;DHT22;64122;51.988;5.892;2023-05-10T07:57:49;17.21;69.55
75363;DHT22;64122;51.988;5.892;2023-05-10T08:00:19;17.25;69.58
75363;DHT22;64122;51.988;5.892;2023-05-10T08:02:49;17.30;68.97
75363;DHT22;64122;51.988;5.892;2023-05-10T08:05:21;17.33;69.04
75363;DHT22;64122;51.988;5.892;2023-05-10T08:07:53;17.44;68.67
75363;DHT22;64122;51.988;5.892;2023-05-10T08:10:24;17.51;68.24
75363;DHT22;64122;51.988;5.892;2023-05-10T08:12:53;17.58;67.84
75363;DHT22;64122;51.988;5.892;2023-05-10T08:15:24;17.53;67.62
75363;DHT22;64122;51.988;5.892;2023-05-10T08:17:53;17.49;67.48
75363;DHT22;64122;51.988;5.892;2023-05-10T08:20:26;17.52;67.28
75363;DHT22;64122;51.988;5.892;2023-05-10T08:22:55;17.79;66.69
75363;DHT22;64122;51.988;5.892;2023-05-10T08:25:24;17.82;66.04
75363;DHT22;64122;51.988;5.892;2023-05-10T08:27:54;17.69;66.68
75363;DHT22;64122;51.988;5.892;2023-05-10T08:30:23;17.58;67.09
75363;DHT22;64122;51.988;5.892;2023-05-10T08:32:52;17.51;67.51
75363;DHT22;64122;51.988;5.892;2023-05-10T08:35:22;17.53;66.98
75363;DHT22;64122;51.988;5.892;2023-05-10T08:37:53;17.47;66.71
75363;DHT22;64122;51.988;5.892;2023-05-10T08:40:24;17.24;67.02
75363;DHT22;64122;51.988;5.892;2023-05-10T08:42:59;17.11;66.99
75363;DHT22;64122;51.988;5.892;2023-05-10T08:45:32;17.06;67.05
75363;DHT22;64122;51.988;5.892;2023-05-10T08:48:02;17.03;67.20
75363;DHT22;64122;51.988;5.892;2023-05-10T08:50:35;17.10;66.86
75363;DHT22;64122;51.988;5.892;2023-05-10T08:53:10;17.29;66.27
75363;DHT22;64122;51.988;5.892;2023-05-10T08:55:40;17.52;65.57
75363;DHT22;64122;51.988;5.892;2023-05-10T08:58:09;17.65;65.41
75363;DHT22;64122;51.988;5.892;2023-05-10T09:00:39;17.77;64.68
75363;DHT22;64122;51.988;5.892;2023-05-10T09:03:09;17.78;64.32
75363;DHT22;64122;51.988;5.892;2023-05-10T09:05:38;17.79;64.01
75363;DHT22;64122;51.988;5.892;2023-05-10T09:08:11;18.00;63.49
75363;DHT22;64122;51.988;5.892;2023-05-10T09:10:43;18.26;62.67
75363;DHT22;64122;51.988;5.892;2023-05-10T09:13:14;18.35;61.89
75363;DHT22;64122;51.988;5.892;2023-05-10T09:15:44;18.40;61.87
75363;DHT22;64122;51.988;5.892;2023-05-10T09:18:14;18.50;61.14
75363;DHT22;64122;51.988;5.892;2023-05-10T09:20:43;18.79;60.56
75363;DHT22;64122;51.988;5.892;2023-05-10T09:23:15;19.02;59.73
75363;DHT22;64122;51.988;5.892;2023-05-10T09:25:44;19.12;59.50
75363;DHT22;64122;51.988;5.892;2023-05-10T09:28:13;19.06;59.51
75363;DHT22;64122;51.988;5.892;2023-05-10T09:30:43;19.14;59.15
75363;DHT22;64122;51.988;5.892;2023-05-10T09:33:12;19.10;58.51
75363;DHT22;64122;51.988;5.892;2023-05-10T09:35:42;19.08;58.99
75363;DHT22;64122;51.988;5.892;2023-05-10T09:38:11;19.26;58.56
75363;DHT22;64122;51.988;5.892;2023-05-10T09:40:51;19.23;58.54
75363;DHT22;64122;51.988;5.892;2023-05-10T09:43:21;19.09;58.10
75363;DHT22;64122;51.988;5.892;2023-05-10T09:45:50;18.98;58.09
75363;DHT22;64122;51.988;5.892;2023-05-10T09:48:23;18.79;58.28
75363;DHT22;64122;51.988;5.892;2023-05-10T09:50:57;18.72;58.76
75363;DHT22;64122;51.988;5.892;2023-05-10T09:53:27;18.67;58.82
75363;DHT22;64122;51.988;5.892;2023-05-10T09:55:58;18.63;58.32
75363;DHT22;64122;51.988;5.892;2023-05-10T09:58:28;18.62;58.38
75363;DHT22;64122;51.988;5.892;2023-05-10T10:00:57;18.64;58.26
75363;DHT22;64122;51.988;5.892;2023-05-10T10:03:26;18.69;58.03
75363;DHT22;64122;51.988;5.892;2023-05-10T10:05:57;18.56;58.12
75363;DHT22;64122;51.988;5.892;2023-05-10T10:08:26;18.47;58.54
75363;DHT22;64122;51.988;5.892;2023-05-10T10:10:58;18.50;59.01
75363;DHT22;64122;51.988;5.892;2023-05-10T10:13:28;18.51;58.98
75363;DHT22;64122;51.988;5.892;2023-05-10T10:15:58;18.54;59.35
75363;DHT22;64122;51.988;5.892;2023-05-10T10:18:27;18.63;59.01
75363;DHT22;64122;51.988;5.892;2023-05-10T10:20:57;18.61;58.77
75363;DHT22;64122;51.988;5.892;2023-05-10T10:23:27;18.54;58.93
75363;DHT22;64122;51.988;5.892;2023-05-10T10:25:59;18.52;59.22
75363;DHT22;64122;51.988;5.892;2023-05-10T10:28:35;18.64;59.61
75363;DHT22;64122;51.988;5.892;2023-05-10T10:31:17;18.71;59.27
75363;DHT22;64122;51.988;5.892;2023-05-10T10:34:05;18.74;59.10
75363;DHT22;64122;51.988;5.892;2023-05-10T10:36:40;18.66;58.57
75363;DHT22;64122;51.988;5.892;2023-05-10T10:39:11;18.68;58.48
75363;DHT22;64122;51.988;5.892;2023-05-10T10:41:52;18.93;58.04
75363;DHT22;64122;51.988;5.892;2023-05-10T10:44:38;19.36;57.03
75363;DHT22;64122;51.988;5.892;2023-05-10T10:47:21;19.54;55.98
75363;DHT22;64122;51.988;5.892;2023-05-10T10:50:06;19.66;56.68
75363;DHT22;64122;51.988;5.892;2023-05-10T10:52:37;19.71;55.84
75363;DHT22;64122;51.988;5.892;2023-05-10T10:55:08;19.83;55.97
75363;DHT22;64122;51.988;5.892;2023-05-10T10:57:59;19.85;56.68
75363;DHT22;64122;51.988;5.892;2023-05-10T11:00:31;19.85;55.71
75363;DHT22;64122;51.988;5.892;2023-05-10T11:03:04;19.69;55.94
75363;DHT22;64122;51.988;5.892;2023-05-10T11:05:37;19.63;56.10
75363;DHT22;64122;51.988;5.892;2023-05-10T11:08:12;19.52;55.94
75363;DHT22;64122;51.988;5.892;2023-05-10T11:11:04;19.48;56.19
75363;DHT22;64122;51.988;5.892;2023-05-10T11:13:39;19.58;56.03
75363;DHT22;64122;51.988;5.892;2023-05-10T11:16:16;19.76;56.04
75363;DHT22;64122;51.988;5.892;2023-05-10T11:18:53;19.90;55.26
75363;DHT22;64122;51.988;5.892;2023-05-10T11:21:23;20.01;54.77
75363;DHT22;64122;51.988;5.892;2023-05-10T11:23:54;20.22;54.33
75363;DHT22;64122;51.988;5.892;2023-05-10T11:26:25;20.48;53.48
75363;DHT22;64122;51.988;5.892;2023-05-10T11:28:57;20.56;53.51
75363;DHT22;64122;51.988;5.892;2023-05-10T11:31:28;20.76;53.73
75363;DHT22;64122;51.988;5.892;2023-05-10T11:34:00;20.98;52.83
75363;DHT22;64122;51.988;5.892;2023-05-10T11:36:32;21.03;52.14
75363;DHT22;64122;51.988;5.892;2023-05-10T11:39:02;21.10;51.50
75363;DHT22;64122;51.988;5.892;2023-05-10T11:41:33;21.18;51.23
75363;DHT22;64122;51.988;5.892;2023-05-10T11:44:04;21.19;50.94
75363;DHT22;64122;51.988;5.892;2023-05-10T11:46:34;21.09;51.08
75363;DHT22;64122;51.988;5.892;2023-05-10T11:49:03;21.05;51.21
75363;DHT22;64122;51.988;5.892;2023-05-10T11:51:34;21.13;50.89
75363;DHT22;64122;51.988;5.892;2023-05-10T11:54:06;21.11;51.43
75363;DHT22;64122;51.988;5.892;2023-05-10T11:56:37;21.24;51.44
75363;DHT22;64122;51.988;5.892;2023-05-10T11:59:09;21.34;50.88
75363;DHT22;64122;51.988;5.892;2023-05-10T12:01:38;21.20;51.15
75363;DHT22;64122;51.988;5.892;2023-05-10T12:04:07;21.16;51.28
75363;DHT22;64122;51.988;5.892;2023-05-10T12:06:40;21.09;51.77
75363;DHT22;64122;51.988;5.892;2023-05-10T12:09:09;21.19;51.47
75363;DHT22;64122;51.988;5.892;2023-05-10T12:11:39;21.33;50.80
75363;DHT22;64122;51.988;5.892;2023-05-10T12:14:11;21.38;50.94
75363;DHT22;64122;51.988;5.892;2023-05-10T12:16:43;21.68;50.69
75363;DHT22;64122;51.988;5.892;2023-05-10T12:19:12;21.91;50.21
75363;DHT22;64122;51.988;5.892;2023-05-10T12:21:47;22.11;49.95
75363;DHT22;64122;51.988;5.892;2023-05-10T12:24:16;22.25;48.74
75363;DHT22;64122;51.988;5.892;2023-05-10T12:26:47;22.33;48.92
75363;DHT22;64122;51.988;5.892;2023-05-10T12:29:19;22.36;48.40
75363;DHT22;64122;51.988;5.892;2023-05-10T12:31:52;22.33;48.34
75363;DHT22;64122;51.988;5.892;2023-05-10T12:34:25;22.24;48.85
75363;DHT22;64122;51.988;5.892;2023-05-10T12:36:55;22.23;48.94
75363;DHT22;64122;51.988;5.892;2023-05-10T12:39:24;22.10;48.34
75363;DHT22;64122;51.988;5.892;2023-05-10T12:41:54;22.06;48.77
75363;DHT22;64122;51.988;5.892;2023-05-10T12:44:26;22.11;48.83
75363;DHT22;64122;51.988;5.892;2023-05-10T12:46:55;22.09;48.35
75363;DHT22;64122;51.988;5.892;2023-05-10T12:49:24;22.04;48.48
75363;DHT22;64122;51.988;5.892;2023-05-10T12:51:53;22.04;48.44
75363;DHT22;64122;51.988;5.892;2023-05-10T12:54:22;22.13;49.05
75363;DHT22;64122;51.988;5.892;2023-05-10T12:56:52;22.33;48.70
75363;DHT22;64122;51.988;5.892;2023-05-10T12:59:21;22.43;47.34
75363;DHT22;64122;51.988;5.892;2023-05-10T13:01:53;22.43;47.31
75363;DHT22;64122;51.988;5.892;2023-05-10T13:04:22;22.53;47.31
75363;DHT22;64122;51.988;5.892;2023-05-10T13:06:51;22.66;46.74
75363;DHT22;64122;51.988;5.892;2023-05-10T13:09:22;22.73;46.65
75363;DHT22;64122;51.988;5.892;2023-05-10T13:11:51;22.73;46.68
75363;DHT22;64122;51.988;5.892;2023-05-10T13:14:20;22.80;46.61
75363;DHT22;64122;51.988;5.892;2023-05-10T13:16:50;22.79;46.47
75363;DHT22;64122;51.988;5.892;2023-05-10T13:19:22;22.80;46.93
75363;DHT22;64122;51.988;5.892;2023-05-10T13:21:51;22.78;47.11
75363;DHT22;64122;51.988;5.892;2023-05-10T13:24:20;22.65;47.34
75363;DHT22;64122;51.988;5.892;2023-05-10T13:26:50;22.50;47.84
75363;DHT22;64122;51.988;5.892;2023-05-10T13:29:19;22.37;48.21
75363;DHT22;64122;51.988;5.892;2023-05-10T13:31:48;22.20;48.88
75363;DHT22;64122;51.988;5.892;2023-05-10T13:34:17;21.94;48.92
75363;DHT22;64122;51.988;5.892;2023-05-10T13:36:50;21.81;48.99
75363;DHT22;64122;51.988;5.892;2023-05-10T13:39:20;21.78;49.73
75363;DHT22;64122;51.988;5.892;2023-05-10T13:41:49;21.77;49.46
75363;DHT22;64122;51.988;5.892;2023-05-10T13:44:20;21.73;49.89
75363;DHT22;64122;51.988;5.892;2023-05-10T13:46:49;21.72;50.09
75363;DHT22;64122;51.988;5.892;2023-05-10T13:49:19;21.49;50.98
75363;DHT22;64122;51.988;5.892;2023-05-10T13:51:50;21.30;51.97
75363;DHT22;64122;51.988;5.892;2023-05-10T13:54:20;21.05;52.72
75363;DHT22;64122;51.988;5.892;2023-05-10T13:56:49;20.66;53.51
75363;DHT22;64122;51.988;5.892;2023-05-10T13:59:18;20.36;54.62
75363;DHT22;64122;51.988;5.892;2023-05-10T14:01:47;20.16;55.42
75363;DHT22;64122;51.988;5.892;2023-05-10T14:04:16;19.97;55.90
75363;DHT22;64122;51.988;5.892;2023-05-10T14:06:46;19.79;55.90
75363;DHT22;64122;51.988;5.892;2023-05-10T14:09:18;19.59;55.90
75363;DHT22;64122;51.988;5.892;2023-05-10T14:11:47;19.24;56.55
75363;DHT22;64122;51.988;5.892;2023-05-10T14:14:16;19.27;57.19
75363;DHT22;64122;51.988;5.892;2023-05-10T14:16:46;19.38;57.22
75363;DHT22;64122;51.988;5.892;2023-05-10T14:19:15;19.37;57.84
75363;DHT22;64122;51.988;5.892;2023-05-10T14:21:44;19.37;58.27
75363;DHT22;64122;51.988;5.892;2023-05-10T14:24:13;19.29;58.54
75363;DHT22;64122;51.988;5.892;2023-05-10T14:26:45;19.31;58.96
75363;DHT22;64122;51.988;5.892;2023-05-10T14:29:14;19.38;58.74
75363;DHT22;64122;51.988;5.892;2023-05-10T14:31:43;19.38;58.72
75363;DHT22;64122;51.988;5.892;2023-05-10T14:34:13;19.35;58.66
75363;DHT22;64122;51.988;5.892;2023-05-10T14:36:43;19.17;59.16
75363;DHT22;64122;51.988;5.892;2023-05-10T14:39:12;19.10;59.61
75363;DHT22;64122;51.988;5.892;2023-05-10T14:41:45;19.03;59.80
75363;DHT22;64122;51.988;5.892;2023-05-10T14:44:14;18.99;59.39
75363;DHT22;64122;51.988;5.892;2023-05-10T14:46:44;18.91;59.16
75363;DHT22;64122;51.988;5.892;2023-05-10T14:49:14;18.74;59.42
75363;DHT22;64122;51.988;5.892;2023-05-10T14:51:43;18.68;59.61
75363;DHT22;64122;51.988;5.892;2023-05-10T14:54:12;18.68;59.80
75363;DHT22;64122;51.988;5.892;2023-05-10T14:56:42;18.70;59.77
75363;DHT22;64122;51.988;5.892;2023-05-10T14:59:13;18.73;59.70
75363;DHT22;64122;51.988;5.892;2023-05-10T15:01:43;18.76;59.73
75363;DHT22;64122;51.988;5.892;2023-05-10T15:04:12;18.85;59.76
75363;DHT22;64122;51.988;5.892;2023-05-10T15:06:42;18.93;59.57
75363;DHT22;64122;51.988;5.892;2023-05-10T15:09:11;19.01;59.23
75363;DHT22;64122;51.988;5.892;2023-05-10T15:11:41;19.12;59.03
75363;DHT22;64122;51.988;5.892;2023-05-10T15:14:13;19.25;59.02
75363;DHT22;64122;51.988;5.892;2023-05-10T15:16:42;19.36;58.35
75363;DHT22;64122;51.988;5.892;2023-05-10T15:19:11;19.29;58.06
75363;DHT22;64122;51.988;5.892;2023-05-10T15:21:41;19.18;58.37
75363;DHT22;64122;51.988;5.892;2023-05-10T15:24:10;19.12;58.18
75363;DHT22;64122;51.988;5.892;2023-05-10T15:26:39;19.11;58.15
75363;DHT22;64122;51.988;5.892;2023-05-10T15:29:09;19.01;58.25
75363;DHT22;64122;51.988;5.892;2023-05-10T15:31:48;18.96;58.13
75363;DHT22;64122;51.988;5.892;2023-05-10T15:34:18;18.96;57.96
75363;DHT22;64122;51.988;5.892;2023-05-10T15:36:47;19.01;58.09
75363;DHT22;64122;51.988;5.892;2023-05-10T15:39:17;19.07;57.87
75363;DHT22;64122;51.988;5.892;2023-05-10T15:41:46;19.07;57.93
75363;DHT22;64122;51.988;5.892;2023-05-10T15:44:15;19.11;57.79
75363;DHT22;64122;51.988;5.892;2023-05-10T15:46:47;19.10;57.86
75363;DHT22;64122;51.988;5.892;2023-05-10T15:49:17;19.11;57.81
75363;DHT22;64122;51.988;5.892;2023-05-10T15:51:46;19.07;57.69
75363;DHT22;64122;51.988;5.892;2023-05-10T15:54:15;19.02;58.05
75363;DHT22;64122;51.988;5.892;2023-05-10T15:56:44;19.03;58.30
75363;DHT22;64122;51.988;5.892;2023-05-10T15:59:14;19.16;57.94
75363;DHT22;64122;51.988;5.892;2023-05-10T16:01:43;19.22;57.67